Terminal Aerodrome Forecast
Issued by NWS Tampa Bay Area, FL

Home | Current Version | Previous Version | Text Only | Print | Product List | Glossary On
Versions: 1 2 3 4 5 6 7 8 9 10 11 12 13 14 15 16 17 18 19
000
FTUS42 KTBW 292334
TAFFMY
TAF
KFMY 292334Z 3000/3024 VRB06KT P6SM VCSH SCT040 SCT120 BKN250
     FM300300 VRB05KT P6SM FEW025 BKN250
     FM301500 12012G18KT 6SM SHRA VCTS SCT018CB BKN040=

USA.gov is the U.S. government's official web portal to all federal, state and local government web resources and services.